Time;durP1;ratioP1;P1;durP2;ratioP2;P2;SDS_P1;SDS_P2;PMS_P1;PMS_P2;Temp;Humidity;BMP_temperature;BMP_pressure;BME280_temperature;BME280_humidity;BME280_pressure;Samples;Min_cycle;Max_cycle;Signal;HPM_P1;HPM_P2
2021/07/06 05:00:32;;;;;;;3.73;2.97;;;;;;;;;;6005979;23;20242;-70
2021/07/06 05:03:17;;;;;;;4.23;3.50;;;;;;;;;;4944503;28;20288;-71
2021/07/06 05:06:02;;;;;;;4.07;3.50;;;;;;;;;;4940320;29;20221;-71
2021/07/06 05:08:48;;;;;;;3.77;3.37;;;;;;;;;;4955429;29;20576;-71
2021/07/06 05:11:33;;;;;;;5.85;3.28;;;;;;;;;;4945032;29;20593;-71
2021/07/06 05:14:18;;;;;;;4.57;3.57;;;;;;;;;;4935360;29;20206;-71
2021/07/06 05:17:04;;;;;;;3.00;2.67;;;;;;;;;;4939558;29;20693;-71
2021/07/06 05:19:49;;;;;;;3.73;2.60;;;;;;;;;;4939291;29;20729;-69
2021/07/06 05:22:34;;;;;;;5.50;3.00;;;;;;;;;;4934477;29;20257;-66
2021/07/06 05:25:19;;;;;;;3.77;3.00;;;;;;;;;;4935744;29;20216;-69
2021/07/06 05:28:04;;;;;;;4.80;2.87;;;;;;;;;;4934724;29;20209;-67
2021/07/06 05:30:49;;;;;;;3.37;2.70;;;;;;;;;;4935843;29;20643;-71
2021/07/06 05:33:35;;;;;;;3.97;2.90;;;;;;;;;;4934251;29;20210;-70
2021/07/06 05:36:20;;;;;;;3.10;2.57;;;;;;;;;;4935726;29;20216;-69
2021/07/06 05:39:07;;;;;;;4.67;2.53;;;;;;;;;;4935445;29;20225;-69
2021/07/06 05:41:52;;;;;;;2.60;2.50;;;;;;;;;;4935033;29;20346;-69
2021/07/06 05:44:39;;;;;;;6.67;2.73;;;;;;;;;;4934735;29;20201;-70
2021/07/06 05:47:23;;;;;;;4.30;2.90;;;;;;;;;;4934395;29;20212;-68
2021/07/06 05:50:10;;;;;;;5.30;2.70;;;;;;;;;;4935026;29;20213;-69
2021/07/06 05:52:55;;;;;;;2.97;2.67;;;;;;;;;;4934171;29;20462;-69
2021/07/06 05:55:41;;;;;;;4.73;2.33;;;;;;;;;;4916224;29;20588;-69
2021/07/06 05:58:26;;;;;;;3.70;2.40;;;;;;;;;;4932748;29;20206;-69
2021/07/06 06:01:11;;;;;;;3.90;2.40;;;;;;;;;;4934282;29;20826;-70
2021/07/06 06:03:55;;;;;;;3.87;2.50;;;;;;;;;;4922267;29;20471;-69
2021/07/06 06:06:42;;;;;;;3.43;2.70;;;;;;;;;;4935001;29;20212;-70
2021/07/06 06:09:27;;;;;;;4.72;2.80;;;;;;;;;;4921058;29;20420;-69
2021/07/06 06:12:12;;;;;;;2.60;2.40;;;;;;;;;;4914878;29;20229;-70
2021/07/06 06:14:57;;;;;;;4.17;2.67;;;;;;;;;;4915346;29;20218;-70
2021/07/06 06:17:42;;;;;;;3.53;2.83;;;;;;;;;;4915289;29;20864;-70
2021/07/06 06:20:27;;;;;;;5.97;2.70;;;;;;;;;;4918211;29;20261;-69
2021/07/06 06:23:14;;;;;;;3.33;2.97;;;;;;;;;;4933624;29;20311;-70
2021/07/06 06:25:59;;;;;;;6.07;2.90;;;;;;;;;;4933569;29;20221;-70
2021/07/06 06:28:44;;;;;;;3.50;2.33;;;;;;;;;;4925436;29;20225;-71
2021/07/06 06:31:29;;;;;;;3.00;2.80;;;;;;;;;;4920687;29;21639;-69
2021/07/06 06:34:14;;;;;;;6.50;2.57;;;;;;;;;;4932106;29;20297;-69
2021/07/06 06:36:59;;;;;;;3.17;2.60;;;;;;;;;;4917130;29;20214;-70
2021/07/06 06:39:46;;;;;;;2.77;2.50;;;;;;;;;;4921644;29;20216;-70
2021/07/06 06:42:31;;;;;;;2.87;2.50;;;;;;;;;;4918971;29;20221;-71
2021/07/06 06:45:16;;;;;;;2.80;2.60;;;;;;;;;;4914331;29;20435;-70
2021/07/06 06:48:01;;;;;;;3.07;2.73;;;;;;;;;;4924184;29;20216;-70
2021/07/06 06:50:45;;;;;;;3.90;2.50;;;;;;;;;;4934318;29;20856;-70
2021/07/06 06:53:30;;;;;;;4.60;2.47;;;;;;;;;;4933158;29;20737;-70
2021/07/06 06:56:16;;;;;;;5.27;2.53;;;;;;;;;;4933420;29;20580;-71
2021/07/06 06:59:01;;;;;;;4.00;2.37;;;;;;;;;;4933526;29;20301;-69
2021/07/06 07:01:46;;;;;;;2.50;2.33;;;;;;;;;;4929380;29;20244;-71
2021/07/06 07:04:31;;;;;;;2.77;2.40;;;;;;;;;;4932754;29;20710;-71
2021/07/06 07:07:17;;;;;;;3.33;2.27;;;;;;;;;;4931462;29;20217;-71
2021/07/06 07:10:02;;;;;;;2.77;2.30;;;;;;;;;;4933766;29;20246;-71
2021/07/06 07:12:49;;;;;;;3.63;2.30;;;;;;;;;;4932289;29;20233;-70
2021/07/06 07:15:34;;;;;;;3.50;2.40;;;;;;;;;;4932276;29;20338;-70
2021/07/06 07:18:18;;;;;;;3.10;2.33;;;;;;;;;;4932799;29;20216;-71
2021/07/06 07:21:03;;;;;;;3.40;2.20;;;;;;;;;;4933221;29;20232;-70
2021/07/06 07:23:48;;;;;;;2.30;2.10;;;;;;;;;;4931820;29;20731;-72
2021/07/06 07:26:33;;;;;;;2.60;2.20;;;;;;;;;;4933159;29;20212;-70
2021/07/06 07:29:19;;;;;;;2.20;1.97;;;;;;;;;;4933051;29;20215;-71
2021/07/06 07:32:05;;;;;;;2.83;2.00;;;;;;;;;;4933592;29;20253;-70
2021/07/06 07:34:50;;;;;;;2.63;1.93;;;;;;;;;;4932567;29;20211;-71
2021/07/06 07:37:38;;;;;;;2.87;1.97;;;;;;;;;;4933067;29;20211;-71
2021/07/06 07:40:23;;;;;;;2.27;1.90;;;;;;;;;;4932538;29;20704;-71
2021/07/06 07:43:08;;;;;;;2.45;1.90;;;;;;;;;;4931652;29;20470;-71
2021/07/06 07:45:54;;;;;;;3.07;2.00;;;;;;;;;;4933135;29;20215;-69
2021/07/06 07:48:39;;;;;;;1.80;1.70;;;;;;;;;;4933167;29;20225;-70
2021/07/06 07:51:24;;;;;;;2.40;1.80;;;;;;;;;;4932559;29;20506;-69
2021/07/06 07:54:08;;;;;;;2.50;1.60;;;;;;;;;;4932543;29;20266;-70
2021/07/06 07:56:53;;;;;;;1.80;1.60;;;;;;;;;;4933227;29;20209;-71
2021/07/06 07:59:38;;;;;;;1.43;1.30;;;;;;;;;;4932295;29;20287;-70
2021/07/06 08:02:25;;;;;;;2.00;1.70;;;;;;;;;;4931377;29;20425;-71
2021/07/06 08:05:10;;;;;;;1.87;1.73;;;;;;;;;;4930649;29;20215;-71
2021/07/06 08:07:55;;;;;;;2.10;1.30;;;;;;;;;;4933181;29;20215;-71
2021/07/06 08:10:40;;;;;;;1.60;1.50;;;;;;;;;;4932088;29;20296;-71
2021/07/06 08:13:25;;;;;;;4.23;1.40;;;;;;;;;;4931325;29;20208;-70
2021/07/06 08:16:11;;;;;;;2.27;1.60;;;;;;;;;;4931126;29;20212;-70
2021/07/06 08:18:57;;;;;;;1.53;1.43;;;;;;;;;;4933362;29;20221;-70
2021/07/06 08:21:42;;;;;;;2.53;1.40;;;;;;;;;;4933127;29;20255;-70
2021/07/06 08:24:27;;;;;;;1.50;1.40;;;;;;;;;;4932571;29;20333;-69
2021/07/06 08:27:12;;;;;;;1.30;1.20;;;;;;;;;;4933672;29;20217;-69
2021/07/06 08:29:58;;;;;;;2.20;1.50;;;;;;;;;;4933310;29;20698;-70
2021/07/06 08:32:42;;;;;;;1.33;1.23;;;;;;;;;;4932307;29;20714;-70
2021/07/06 08:35:29;;;;;;;2.27;1.40;;;;;;;;;;4934603;29;20276;-69
2021/07/06 08:38:14;;;;;;;1.40;1.30;;;;;;;;;;4934003;29;20218;-69
2021/07/06 08:40:59;;;;;;;2.40;1.53;;;;;;;;;;4935586;29;20285;-69
2021/07/06 08:43:44;;;;;;;1.70;1.20;;;;;;;;;;4935588;29;20281;-68
2021/07/06 08:46:30;;;;;;;2.30;1.27;;;;;;;;;;4936423;29;20205;-70
2021/07/06 08:49:16;;;;;;;3.17;1.37;;;;;;;;;;4936497;29;20208;-70
2021/07/06 08:52:03;;;;;;;5.37;1.50;;;;;;;;;;4936482;29;20353;-69
2021/07/06 08:54:48;;;;;;;2.17;1.60;;;;;;;;;;4935365;29;20217;-69
2021/07/06 08:57:33;;;;;;;2.30;1.63;;;;;;;;;;4936506;29;20225;-70
2021/07/06 09:00:18;;;;;;;2.40;1.50;;;;;;;;;;4935960;29;20434;-71
2021/07/06 09:03:05;;;;;;;1.93;1.50;;;;;;;;;;4935396;29;20597;-71
2021/07/06 09:06:01;;;;;;;2.07;1.70;;;;;;;;;;4935976;29;20212;-70
2021/07/06 09:08:52;;;;;;;2.67;1.60;;;;;;;;;;4936071;29;20223;-71
2021/07/06 09:11:43;;;;;;;3.63;1.47;;;;;;;;;;4917840;29;20248;-71
2021/07/06 09:14:29;;;;;;;2.30;1.20;;;;;;;;;;4928917;29;20213;-70
2021/07/06 09:17:15;;;;;;;3.50;1.40;;;;;;;;;;4932333;29;20220;-71
2021/07/06 09:20:00;;;;;;;2.73;1.60;;;;;;;;;;4938218;29;20667;-72
2021/07/06 09:22:45;;;;;;;4.60;1.80;;;;;;;;;;4943712;28;20232;-71
2021/07/06 09:25:31;;;;;;;3.47;1.40;;;;;;;;;;4939162;29;20302;-71
2021/07/06 09:28:23;;;;;;;2.37;1.50;;;;;;;;;;4946306;29;20703;-71
2021/07/06 09:31:16;;;;;;;5.13;1.93;;;;;;;;;;4944912;28;20275;-71
2021/07/06 09:34:03;;;;;;;4.57;1.70;;;;;;;;;;4927649;29;20236;-70
2021/07/06 09:36:48;;;;;;;3.07;1.60;;;;;;;;;;4948721;29;20751;-71
2021/07/06 09:39:33;;;;;;;3.37;1.60;;;;;;;;;;4938697;29;20602;-70
2021/07/06 09:42:20;;;;;;;2.00;1.50;;;;;;;;;;4946524;28;20830;-70
2021/07/06 09:45:05;;;;;;;4.70;1.93;;;;;;;;;;4949715;29;20761;-71
2021/07/06 09:48:04;;;;;;;5.07;1.70;;;;;;;;;;4937753;29;20224;-69
2021/07/06 09:50:49;;;;;;;2.73;1.50;;;;;;;;;;4942123;29;20273;-70
2021/07/06 09:53:34;;;;;;;3.70;1.70;;;;;;;;;;4950331;29;20329;-69
2021/07/06 09:56:22;;;;;;;1.80;1.57;;;;;;;;;;4943531;29;20304;-69
2021/07/06 09:59:14;;;;;;;5.30;1.60;;;;;;;;;;4939888;29;20355;-69
2021/07/06 10:02:03;;;;;;;4.00;1.60;;;;;;;;;;4934966;29;20362;-69
2021/07/06 10:04:49;;;;;;;4.20;1.50;;;;;;;;;;4934276;29;20368;-69
2021/07/06 10:07:35;;;;;;;3.90;1.43;;;;;;;;;;4934776;29;20212;-70
2021/07/06 10:10:21;;;;;;;5.80;1.70;;;;;;;;;;4925940;29;20285;-69
2021/07/06 10:13:06;;;;;;;3.33;1.70;;;;;;;;;;4948449;29;20567;-70
2021/07/06 10:15:53;;;;;;;4.23;1.60;;;;;;;;;;4952988;29;20635;-69
2021/07/06 10:18:38;;;;;;;4.13;2.60;;;;;;;;;;4939911;29;20697;-69
2021/07/06 10:21:23;;;;;;;4.47;1.70;;;;;;;;;;4938925;29;20231;-69
2021/07/06 10:24:08;;;;;;;4.03;2.00;;;;;;;;;;4942877;29;20233;-70
2021/07/06 10:26:57;;;;;;;4.17;1.53;;;;;;;;;;4933350;29;20217;-69
2021/07/06 10:29:42;;;;;;;4.27;2.10;;;;;;;;;;4947091;29;20573;-69
2021/07/06 10:32:39;;;;;;;4.77;1.90;;;;;;;;;;4930758;29;20788;-66
2021/07/06 10:35:43;;;;;;;3.10;1.57;;;;;;;;;;4933419;29;20217;-68
2021/07/06 10:38:41;;;;;;;4.17;1.63;;;;;;;;;;4934093;29;20212;-68
2021/07/06 10:41:44;;;;;;;2.80;1.70;;;;;;;;;;4933346;29;20232;-69
2021/07/06 10:44:33;;;;;;;4.70;1.70;;;;;;;;;;4932771;29;20357;-69
2021/07/06 10:47:39;;;;;;;2.40;1.47;;;;;;;;;;4934033;29;20261;-69
2021/07/06 10:50:39;;;;;;;4.57;1.63;;;;;;;;;;4934231;29;20205;-69
2021/07/06 10:53:24;;;;;;;4.38;1.75;;;;;;;;;;4933078;29;20422;-69
2021/07/06 10:56:11;;;;;;;5.77;1.50;;;;;;;;;;4934276;29;20266;-69
2021/07/06 10:58:58;;;;;;;4.90;1.70;;;;;;;;;;4933589;29;20209;-68
2021/07/06 11:01:53;;;;;;;4.07;1.50;;;;;;;;;;4933904;29;20237;-68
2021/07/06 11:05:00;;;;;;;3.77;1.60;;;;;;;;;;4933339;29;20824;-68
2021/07/06 11:07:52;;;;;;;5.07;1.93;;;;;;;;;;4934164;29;20198;-68
2021/07/06 11:10:41;;;;;;;4.27;2.00;;;;;;;;;;4934179;29;20691;-69
2021/07/06 11:13:30;;;;;;;8.63;2.30;;;;;;;;;;4930112;29;20622;-69
2021/07/06 11:16:30;;;;;;;6.50;2.17;;;;;;;;;;4934670;29;20347;-68
2021/07/06 11:19:34;;;;;;;7.43;2.10;;;;;;;;;;4933148;29;20829;-70
2021/07/06 11:22:19;;;;;;;4.07;2.00;;;;;;;;;;4932858;29;20229;-69
2021/07/06 11:25:16;;;;;;;4.23;1.90;;;;;;;;;;4932202;29;20723;-70
2021/07/06 11:28:02;;;;;;;6.10;2.10;;;;;;;;;;4930328;29;20682;-69
2021/07/06 11:30:48;;;;;;;5.17;1.90;;;;;;;;;;4931643;29;20436;-70
2021/07/06 11:33:40;;;;;;;6.10;1.83;;;;;;;;;;4931115;29;20797;-70
2021/07/06 11:36:26;;;;;;;3.43;1.63;;;;;;;;;;4933701;29;20205;-70
2021/07/06 11:39:12;;;;;;;5.10;1.77;;;;;;;;;;4933225;29;20338;-70
2021/07/06 11:41:58;;;;;;;5.03;1.60;;;;;;;;;;4933472;29;20285;-70
2021/07/06 11:44:45;;;;;;;1.83;1.37;;;;;;;;;;4932493;29;20237;-70
2021/07/06 11:47:31;;;;;;;3.67;1.80;;;;;;;;;;4933140;29;20198;-70
2021/07/06 11:50:25;;;;;;;5.97;1.38;;;;;;;;;;4933371;29;20946;-70
2021/07/06 11:53:10;;;;;;;3.83;1.80;;;;;;;;;;4932267;29;20589;-70
2021/07/06 11:55:56;;;;;;;5.60;1.70;;;;;;;;;;4915531;29;20350;-69
2021/07/06 11:58:42;;;;;;;4.80;1.70;;;;;;;;;;4916922;29;20222;-70
2021/07/06 12:01:28;;;;;;;2.73;1.40;;;;;;;;;;4932873;29;20245;-70
2021/07/06 12:04:12;;;;;;;5.83;1.70;;;;;;;;;;4932588;29;20365;-70
2021/07/06 12:07:05;;;;;;;3.67;1.70;;;;;;;;;;4932300;29;20209;-69
2021/07/06 12:10:01;;;;;;;3.33;1.43;;;;;;;;;;4934135;29;20342;-69
2021/07/06 12:12:46;;;;;;;5.83;1.63;;;;;;;;;;4936522;29;20345;-71
2021/07/06 12:15:40;;;;;;;4.50;1.70;;;;;;;;;;4937165;29;20209;-70
2021/07/06 12:18:26;;;;;;;3.87;1.63;;;;;;;;;;4936990;29;20633;-70
2021/07/06 12:21:11;;;;;;;3.43;1.70;;;;;;;;;;4936654;29;20300;-69
2021/07/06 12:23:57;;;;;;;3.63;1.40;;;;;;;;;;4936418;29;20237;-71
2021/07/06 12:26:43;;;;;;;6.55;1.80;;;;;;;;;;4936874;29;20418;-70
2021/07/06 12:29:29;;;;;;;3.13;1.70;;;;;;;;;;4936391;29;20695;-70
2021/07/06 12:32:18;;;;;;;4.87;1.60;;;;;;;;;;4936154;29;20245;-69
2021/07/06 12:35:04;;;;;;;4.23;1.40;;;;;;;;;;4936579;29;20318;-71
2021/07/06 12:37:50;;;;;;;4.87;1.50;;;;;;;;;;4917675;29;20220;-69
2021/07/06 12:40:35;;;;;;;3.97;1.77;;;;;;;;;;4928676;29;20208;-70
2021/07/06 12:43:22;;;;;;;4.60;1.67;;;;;;;;;;4935991;29;20205;-70
2021/07/06 12:46:07;;;;;;;5.97;1.70;;;;;;;;;;4936665;29;20252;-69
2021/07/06 12:48:53;;;;;;;4.43;1.50;;;;;;;;;;4935918;29;20413;-70
2021/07/06 12:51:53;;;;;;;3.53;1.60;;;;;;;;;;4936380;29;20222;-70
2021/07/06 12:54:40;;;;;;;4.70;1.70;;;;;;;;;;4935887;29;20293;-69
2021/07/06 12:57:26;;;;;;;5.60;1.40;;;;;;;;;;4936465;29;20578;-69
2021/07/06 13:00:17;;;;;;;2.00;1.33;;;;;;;;;;4936408;29;20225;-70
2021/07/06 13:03:03;;;;;;;3.63;1.40;;;;;;;;;;4934733;29;20234;-70
2021/07/06 13:06:01;;;;;;;3.13;1.30;;;;;;;;;;4917332;29;20759;-70
2021/07/06 13:08:46;;;;;;;3.00;1.60;;;;;;;;;;4929654;29;20210;-71
2021/07/06 13:11:31;;;;;;;3.67;1.43;;;;;;;;;;4935812;29;20349;-70
2021/07/06 13:14:17;;;;;;;5.20;1.63;;;;;;;;;;4934524;29;20205;-68
2021/07/06 13:17:17;;;;;;;6.13;1.80;;;;;;;;;;4935129;29;20209;-70
2021/07/06 13:20:04;;;;;;;3.47;1.83;;;;;;;;;;4935998;29;20209;-70
2021/07/06 13:22:53;;;;;;;4.13;1.67;;;;;;;;;;4935485;29;20397;-70
2021/07/06 13:25:39;;;;;;;4.97;1.80;;;;;;;;;;4916738;29;20230;-70
2021/07/06 13:28:24;;;;;;;5.20;1.57;;;;;;;;;;4929006;29;20209;-69
2021/07/06 13:31:09;;;;;;;5.47;1.87;;;;;;;;;;4936024;29;20590;-69
2021/07/06 13:33:54;;;;;;;2.07;1.33;;;;;;;;;;4934772;29;20209;-70
2021/07/06 13:36:39;;;;;;;4.90;1.80;;;;;;;;;;4933778;29;20216;-70
2021/07/06 13:39:26;;;;;;;5.60;1.90;;;;;;;;;;4935668;29;20573;-69
2021/07/06 13:42:10;;;;;;;2.33;1.27;;;;;;;;;;4935513;29;20241;-70
2021/07/06 13:44:55;;;;;;;6.77;1.80;;;;;;;;;;4934919;29;20702;-70
2021/07/06 13:47:40;;;;;;;5.13;1.90;;;;;;;;;;4934154;29;21055;-69
2021/07/06 13:50:25;;;;;;;4.10;1.60;;;;;;;;;;4935646;29;20558;-70
2021/07/06 13:53:10;;;;;;;5.43;1.80;;;;;;;;;;4934302;29;20709;-71
2021/07/06 13:55:57;;;;;;;2.90;1.70;;;;;;;;;;4935452;29;20279;-70
2021/07/06 13:58:42;;;;;;;5.07;1.80;;;;;;;;;;4935232;29;20229;-70
2021/07/06 14:01:27;;;;;;;6.63;1.80;;;;;;;;;;4932077;29;20664;-70
2021/07/06 14:04:12;;;;;;;4.70;1.70;;;;;;;;;;4933065;29;20225;-71
2021/07/06 14:06:57;;;;;;;4.70;1.90;;;;;;;;;;4935178;29;20213;-69
2021/07/06 14:09:43;;;;;;;4.90;1.77;;;;;;;;;;4934441;29;20217;-70
2021/07/06 14:12:29;;;;;;;2.77;1.53;;;;;;;;;;4934728;29;20233;-68
2021/07/06 14:15:14;;;;;;;3.10;1.47;;;;;;;;;;4935167;29;20283;-70
2021/07/06 14:18:00;;;;;;;3.97;1.70;;;;;;;;;;4934911;29;20281;-70
2021/07/06 14:20:47;;;;;;;3.97;1.80;;;;;;;;;;4934520;29;20232;-70
2021/07/06 14:23:32;;;;;;;3.90;1.80;;;;;;;;;;4934564;29;20376;-68
2021/07/06 14:26:17;;;;;;;5.20;1.57;;;;;;;;;;4934780;29;20233;-70
2021/07/06 14:29:04;;;;;;;4.97;1.77;;;;;;;;;;4930889;29;20216;-69
2021/07/06 14:31:49;;;;;;;2.87;1.53;;;;;;;;;;4934093;29;20281;-70
2021/07/06 14:34:34;;;;;;;3.53;2.30;;;;;;;;;;4914712;29;20213;-69
2021/07/06 14:37:20;;;;;;;2.77;1.53;;;;;;;;;;4929159;29;20217;-70
2021/07/06 14:40:06;;;;;;;4.43;1.43;;;;;;;;;;4934736;29;20786;-70
2021/07/06 14:42:51;;;;;;;3.63;1.70;;;;;;;;;;4933800;29;20213;-69
2021/07/06 14:45:37;;;;;;;4.22;1.70;;;;;;;;;;4933101;29;20432;-69
2021/07/06 14:48:22;;;;;;;4.60;1.73;;;;;;;;;;4915499;29;20230;-69
2021/07/06 14:51:07;;;;;;;6.03;1.73;;;;;;;;;;4930797;29;20314;-69
2021/07/06 14:53:52;;;;;;;4.23;1.57;;;;;;;;;;4933328;29;20210;-69
2021/07/06 14:56:37;;;;;;;2.03;1.53;;;;;;;;;;4934248;29;20338;-71
2021/07/06 14:59:22;;;;;;;3.07;1.63;;;;;;;;;;4922829;29;20212;-70
2021/07/06 15:02:08;;;;;;;4.57;1.40;;;;;;;;;;4934077;29;20590;-69
2021/07/06 15:04:53;;;;;;;4.57;1.60;;;;;;;;;;4932717;29;20390;-69
2021/07/06 15:07:38;;;;;;;4.23;1.70;;;;;;;;;;4933865;29;20213;-69
2021/07/06 15:10:23;;;;;;;5.47;1.60;;;;;;;;;;4934073;29;20205;-68
2021/07/06 15:13:08;;;;;;;3.63;1.77;;;;;;;;;;4932702;29;20221;-67
2021/07/06 15:15:55;;;;;;;4.03;1.70;;;;;;;;;;4933707;29;20202;-70
2021/07/06 15:18:42;;;;;;;3.43;1.60;;;;;;;;;;4933789;29;20288;-68
2021/07/06 15:21:26;;;;;;;3.30;1.63;;;;;;;;;;4933518;29;20237;-70
2021/07/06 15:24:11;;;;;;;7.00;1.63;;;;;;;;;;4932944;29;20277;-68
2021/07/06 15:26:56;;;;;;;4.93;1.57;;;;;;;;;;4914787;29;20230;-69
2021/07/06 15:29:41;;;;;;;2.67;1.57;;;;;;;;;;4914861;29;20218;-69
2021/07/06 15:32:26;;;;;;;4.13;1.83;;;;;;;;;;4916602;29;20310;-69
2021/07/06 15:35:16;;;;;;;4.47;2.20;;;;;;;;;;4932177;29;20714;-68
2021/07/06 15:38:01;;;;;;;4.90;1.70;;;;;;;;;;4913491;29;20218;-68
2021/07/06 15:40:46;;;;;;;6.37;2.30;;;;;;;;;;4929962;29;20628;-69
2021/07/06 15:43:31;;;;;;;3.25;2.30;;;;;;;;;;4931036;29;20954;-70
2021/07/06 15:46:16;;;;;;;4.77;2.07;;;;;;;;;;4933226;29;20235;-69
2021/07/06 15:49:01;;;;;;;5.70;1.90;;;;;;;;;;4933020;29;20667;-69
2021/07/06 15:51:48;;;;;;;4.57;1.80;;;;;;;;;;4933433;29;20234;-68
2021/07/06 15:54:33;;;;;;;4.53;1.97;;;;;;;;;;4932610;29;20379;-69
2021/07/06 15:57:18;;;;;;;3.93;1.87;;;;;;;;;;4933501;29;20203;-69
2021/07/06 16:00:04;;;;;;;3.70;2.23;;;;;;;;;;4933095;29;20312;-69
2021/07/06 16:02:50;;;;;;;4.53;2.07;;;;;;;;;;4932608;29;20217;-69
2021/07/06 16:05:34;;;;;;;4.63;1.80;;;;;;;;;;4933135;29;20237;-69
2021/07/06 16:08:21;;;;;;;4.70;1.80;;;;;;;;;;4933445;29;20199;-70
2021/07/06 16:11:06;;;;;;;4.23;1.80;;;;;;;;;;4932797;29;20229;-69
2021/07/06 16:13:51;;;;;;;3.80;1.80;;;;;;;;;;4932527;29;20211;-69
2021/07/06 16:16:36;;;;;;;2.37;1.60;;;;;;;;;;4932431;29;20564;-69
2021/07/06 16:19:20;;;;;;;3.25;1.60;;;;;;;;;;4931688;29;20428;-68
2021/07/06 16:22:06;;;;;;;2.43;1.40;;;;;;;;;;4930133;29;20229;-68
2021/07/06 16:24:52;;;;;;;1.67;1.10;;;;;;;;;;4931624;29;20226;-70
2021/07/06 16:27:37;;;;;;;2.33;1.00;;;;;;;;;;4931315;29;20693;-69
2021/07/06 16:30:24;;;;;;;3.37;1.33;;;;;;;;;;4927387;29;20202;-68
2021/07/06 16:33:08;;;;;;;1.90;0.97;;;;;;;;;;4926315;29;20213;-68
2021/07/06 16:35:55;;;;;;;2.50;1.30;;;;;;;;;;4929822;29;20590;-69
2021/07/06 16:38:42;;;;;;;1.43;1.10;;;;;;;;;;4929756;29;20425;-69
2021/07/06 16:41:30;;;;;;;1.80;1.10;;;;;;;;;;4928133;29;20776;-69
2021/07/06 16:44:15;;;;;;;1.93;1.23;;;;;;;;;;4913305;29;20218;-69
2021/07/06 16:47:00;;;;;;;1.43;1.10;;;;;;;;;;4924421;29;20296;-70
2021/07/06 16:49:45;;;;;;;1.93;1.30;;;;;;;;;;4932947;29;20576;-70
2021/07/06 18:00:00;;;;;;;1.60;1.50;;;;;;;;;;4792810;29;20570;-68
2021/07/06 18:05:47;;;;;;;2.90;1.93;;;;;;;;;;4856441;29;20334;-68
2021/07/06 18:08:33;;;;;;;2.00;1.50;;;;;;;;;;4857566;29;20331;-71
2021/07/06 18:11:18;;;;;;;1.93;1.47;;;;;;;;;;4906670;29;20611;-68
2021/07/06 18:14:03;;;;;;;3.53;2.00;;;;;;;;;;4933237;29;20979;-68
2021/07/06 18:16:49;;;;;;;2.03;1.63;;;;;;;;;;4934744;29;20209;-68
2021/07/06 18:19:34;;;;;;;2.47;1.70;;;;;;;;;;4934690;29;20210;-68
2021/07/06 18:22:19;;;;;;;2.50;1.77;;;;;;;;;;4934343;29;20237;-68
2021/07/06 18:25:05;;;;;;;2.40;1.70;;;;;;;;;;4934506;29;20225;-68
2021/07/06 18:27:50;;;;;;;3.07;1.90;;;;;;;;;;4935060;29;20209;-69
2021/07/06 18:30:35;;;;;;;2.77;1.70;;;;;;;;;;4934208;29;20228;-68
2021/07/06 18:33:22;;;;;;;4.40;1.70;;;;;;;;;;4934041;29;20421;-68
2021/07/06 18:36:07;;;;;;;2.50;1.70;;;;;;;;;;4934727;29;20201;-68
2021/07/06 18:38:52;;;;;;;3.10;1.60;;;;;;;;;;4915589;29;20331;-67
2021/07/06 18:41:37;;;;;;;4.60;1.77;;;;;;;;;;4929610;29;20229;-69
2021/07/06 18:44:23;;;;;;;5.07;1.53;;;;;;;;;;4933890;29;20210;-69
2021/07/06 18:47:07;;;;;;;2.73;1.57;;;;;;;;;;4934054;29;20209;-68
2021/07/06 18:49:54;;;;;;;1.60;1.50;;;;;;;;;;4934029;29;20339;-69
2021/07/06 18:52:39;;;;;;;3.83;1.87;;;;;;;;;;4933103;29;20241;-69
2021/07/06 18:55:24;;;;;;;2.70;1.60;;;;;;;;;;4934453;29;20205;-67
2021/07/06 18:58:10;;;;;;;3.03;1.70;;;;;;;;;;4934134;29;20209;-69
2021/07/06 19:00:55;;;;;;;3.20;1.87;;;;;;;;;;4933639;29;20236;-68
2021/07/06 19:03:39;;;;;;;2.60;1.63;;;;;;;;;;4933551;29;20202;-68
2021/07/06 19:06:27;;;;;;;2.27;1.70;;;;;;;;;;4933555;29;20246;-68
2021/07/06 19:09:12;;;;;;;2.13;1.77;;;;;;;;;;4933690;29;20212;-69
2021/07/06 19:11:57;;;;;;;3.87;1.90;;;;;;;;;;4932418;29;20237;-68
2021/07/06 19:14:42;;;;;;;4.70;1.93;;;;;;;;;;4935229;29;20217;-69
2021/07/06 19:17:27;;;;;;;3.13;1.80;;;;;;;;;;4953448;29;20197;-69
2021/07/06 19:20:12;;;;;;;3.67;1.80;;;;;;;;;;4952900;28;20302;-67
2021/07/06 19:22:59;;;;;;;4.67;2.00;;;;;;;;;;4932250;29;20294;-68
2021/07/06 19:25:47;;;;;;;4.93;2.00;;;;;;;;;;4932868;29;20240;-69
2021/07/06 19:28:54;;;;;;;3.77;2.10;;;;;;;;;;4933961;29;20201;-68
2021/07/06 19:31:38;;;;;;;5.70;2.38;;;;;;;;;;4933058;29;20425;-68
2021/07/06 19:34:23;;;;;;;4.70;2.00;;;;;;;;;;4933037;29;20249;-66
2021/07/06 19:37:08;;;;;;;4.77;2.20;;;;;;;;;;4933206;29;20205;-67
2021/07/06 19:39:55;;;;;;;3.83;2.10;;;;;;;;;;4933603;29;20218;-67
2021/07/06 19:42:39;;;;;;;3.23;1.90;;;;;;;;;;4932695;29;20249;-69
2021/07/06 19:45:24;;;;;;;3.17;1.90;;;;;;;;;;4933381;29;20221;-68
2021/07/06 19:48:09;;;;;;;4.23;2.30;;;;;;;;;;4933236;29;20234;-69
2021/07/06 19:50:54;;;;;;;4.03;2.23;;;;;;;;;;4932770;29;20308;-69
2021/07/06 19:53:39;;;;;;;3.10;2.10;;;;;;;;;;4932755;29;20208;-67
2021/07/06 19:56:26;;;;;;;4.37;2.37;;;;;;;;;;4933348;29;20293;-67
2021/07/06 19:59:11;;;;;;;3.17;2.20;;;;;;;;;;4932669;29;20213;-69
